Time;durP1;ratioP1;P1;durP2;ratioP2;P2;SDS_P1;SDS_P2;PMS_P1;PMS_P2;Temp;Humidity;BMP_temperature;BMP_pressure;BME280_temperature;BME280_humidity;BME280_pressure;Samples;Min_cycle;Max_cycle;Signal;HPM_P1;HPM_P2
2022/01/15 00:00:27;;;;;;;14.10;5.03;;;6.20;99.90;;;;;;5099865;28;20048;-61
2022/01/15 00:02:54;;;;;;;16.13;4.20;;;6.30;99.90;;;;;;5065754;28;20123;-61
2022/01/15 00:05:20;;;;;;;21.60;4.45;;;6.30;99.90;;;;;;5100215;28;20043;-61
2022/01/15 00:07:48;;;;;;;26.77;4.97;;;6.20;99.90;;;;;;5065038;28;20028;-61
2022/01/15 00:10:16;;;;;;;34.03;5.57;;;6.30;99.90;;;;;;5081998;28;20044;-61
2022/01/15 00:12:42;;;;;;;46.72;6.18;;;6.20;99.90;;;;;;5081294;28;20490;-62
2022/01/15 00:15:13;;;;;;;25.13;4.57;;;6.20;99.90;;;;;;5065433;28;20087;-61
2022/01/15 00:20:12;;;;;;;9.77;3.85;;;6.30;99.90;;;;;;5096558;28;20075;-61
2022/01/15 00:22:38;;;;;;;18.75;4.57;;;6.30;99.90;;;;;;5045181;28;20059;-61
2022/01/15 00:25:04;;;;;;;24.02;4.88;;;6.40;99.90;;;;;;5061518;28;20040;-61
2022/01/15 00:27:30;;;;;;;50.20;5.80;;;6.40;99.90;;;;;;5079959;28;20052;-61
2022/01/15 00:29:55;;;;;;;40.00;4.82;;;6.20;99.90;;;;;;5079154;28;20052;-62
2022/01/15 00:32:21;;;;;;;19.13;5.20;;;6.10;99.90;;;;;;5062024;28;20041;-61
2022/01/15 00:34:47;;;;;;;12.88;3.90;;;6.30;99.90;;;;;;5079192;28;20048;-61
2022/01/15 00:37:12;;;;;;;16.35;5.18;;;6.10;99.90;;;;;;5045665;28;20123;-60
2022/01/15 00:39:38;;;;;;;16.55;4.60;;;6.40;99.90;;;;;;5079425;28;20048;-60
2022/01/15 00:42:05;;;;;;;22.13;6.20;;;6.30;99.90;;;;;;5079461;28;20172;-61
2022/01/15 00:44:31;;;;;;;25.02;5.18;;;6.30;99.90;;;;;;5079423;28;20167;-61
2022/01/15 00:46:57;;;;;;;16.02;4.90;;;6.40;99.90;;;;;;5061198;28;20056;-61
2022/01/15 00:49:22;;;;;;;15.27;4.35;;;6.40;99.90;;;;;;5079613;28;20044;-61
2022/01/15 00:51:48;;;;;;;9.25;3.63;;;6.30;99.90;;;;;;5079036;28;20112;-61
2022/01/15 00:54:14;;;;;;;11.07;4.07;;;6.40;99.90;;;;;;5079878;28;20048;-61
2022/01/15 00:56:39;;;;;;;10.00;3.90;;;6.40;99.90;;;;;;5079522;28;20100;-62
2022/01/15 00:59:05;;;;;;;8.85;3.65;;;6.30;99.90;;;;;;5044360;28;20105;-65
2022/01/15 01:01:31;;;;;;;9.52;3.40;;;6.40;99.90;;;;;;5061515;28;20040;-61
2022/01/15 01:03:56;;;;;;;8.02;2.95;;;6.30;99.90;;;;;;5079011;28;20048;-61
2022/01/15 01:06:22;;;;;;;6.97;2.75;;;6.30;99.90;;;;;;5079647;28;20040;-61
2022/01/15 01:08:48;;;;;;;10.55;4.10;;;6.30;99.90;;;;;;5079007;28;20048;-61
2022/01/15 01:11:17;;;;;;;12.80;3.15;;;6.20;99.90;;;;;;5062522;28;20052;-61
2022/01/15 01:24:25;;;;;;;5.32;1.58;;;6.40;99.90;;;;;;5101678;28;20105;-62
2022/01/15 01:32:00;;;;;;;4.40;1.45;;;6.40;99.90;;;;;;5103108;28;20047;-61
2022/01/15 01:34:28;;;;;;;4.22;1.23;;;6.30;99.90;;;;;;5102559;28;20067;-61
2022/01/15 01:37:17;;;;;;;3.70;1.20;;;6.40;99.90;;;;;;5084996;28;20055;-60
2022/01/15 01:39:51;;;;;;;4.45;1.13;;;6.30;99.90;;;;;;5102893;28;20051;-61
2022/01/15 01:45:20;;;;;;;4.30;1.30;;;6.20;99.90;;;;;;5102971;28;20052;-61
2022/01/15 01:47:46;;;;;;;3.92;1.20;;;6.20;99.90;;;;;;5019749;28;20135;-61
2022/01/15 01:50:24;;;;;;;3.30;1.00;;;6.20;99.90;;;;;;5055085;28;20499;-61
2022/01/15 01:52:56;;;;;;;3.45;1.10;;;6.40;99.90;;;;;;5102939;28;20048;-61
2022/01/15 01:55:25;;;;;;;2.58;1.10;;;6.20;99.90;;;;;;5102096;28;20036;-61
2022/01/15 01:57:52;;;;;;;2.85;1.10;;;6.20;99.90;;;;;;5102838;28;20489;-61
2022/01/15 02:00:20;;;;;;;4.30;1.30;;;6.20;99.90;;;;;;5102050;28;20062;-61
2022/01/15 02:02:47;;;;;;;3.70;1.30;;;6.20;99.90;;;;;;5084662;28;20051;-61
2022/01/15 02:05:13;;;;;;;4.82;1.60;;;6.20;99.90;;;;;;5102240;28;20416;-60
2022/01/15 02:07:41;;;;;;;4.95;1.73;;;6.20;99.90;;;;;;5102074;28;20081;-61
2022/01/15 02:10:09;;;;;;;5.78;2.13;;;6.20;99.90;;;;;;5084450;28;20043;-61
2022/01/15 02:12:36;;;;;;;6.57;2.20;;;6.20;99.90;;;;;;5114540;28;20047;-61
2022/01/15 02:15:10;;;;;;;6.32;2.67;;;6.30;99.90;;;;;;5104617;28;20055;-61
2022/01/15 02:17:36;;;;;;;5.75;2.40;;;6.20;99.90;;;;;;5104060;28;20047;-61
2022/01/15 02:20:23;;;;;;;5.47;2.08;;;6.20;99.90;;;;;;5122511;28;20642;-61
2022/01/15 02:25:44;;;;;;;4.53;1.70;;;6.20;99.90;;;;;;5121772;28;20050;-60
2022/01/15 02:28:10;;;;;;;5.07;1.63;;;6.20;99.90;;;;;;5097583;28;20051;-61
2022/01/15 02:30:36;;;;;;;3.92;1.40;;;6.20;99.90;;;;;;5083172;28;20063;-61
2022/01/15 02:33:04;;;;;;;4.53;1.40;;;6.20;99.90;;;;;;5101919;28;20631;-61
2022/01/15 02:35:30;;;;;;;3.95;1.50;;;6.20;99.90;;;;;;5101983;28;20055;-61
2022/01/15 02:38:07;;;;;;;4.78;1.52;;;6.20;99.90;;;;;;5066525;28;20040;-61
2022/01/15 02:40:37;;;;;;;4.80;1.70;;;6.20;99.90;;;;;;5066903;28;20538;-61
2022/01/15 02:43:09;;;;;;;5.78;1.60;;;6.20;99.90;;;;;;5101201;28;20060;-60
2022/01/15 02:45:36;;;;;;;5.00;1.60;;;6.10;99.90;;;;;;5102200;28;20044;-61
2022/01/15 02:48:10;;;;;;;4.63;1.60;;;6.20;99.90;;;;;;5101251;28;20048;-61
2022/01/15 02:50:36;;;;;;;3.60;1.23;;;6.10;99.90;;;;;;5100950;28;20060;-61
2022/01/15 02:53:04;;;;;;;4.53;1.23;;;6.10;99.90;;;;;;5101612;28;20058;-61
2022/01/15 02:55:30;;;;;;;4.88;1.38;;;6.20;99.90;;;;;;5100850;28;20043;-60
2022/01/15 02:57:56;;;;;;;4.93;1.50;;;6.20;99.90;;;;;;5101692;28;20060;-61
2022/01/15 03:00:23;;;;;;;5.88;1.60;;;6.20;99.90;;;;;;5082942;28;20100;-61
2022/01/15 03:02:48;;;;;;;3.85;1.42;;;6.20;99.90;;;;;;5101678;28;20048;-61
2022/01/15 03:05:14;;;;;;;5.25;1.63;;;6.20;99.90;;;;;;5101169;28;20048;-61
2022/01/15 03:07:40;;;;;;;5.22;1.63;;;6.10;99.90;;;;;;5082815;28;20044;-60
2022/01/15 03:10:08;;;;;;;4.35;1.45;;;6.10;99.90;;;;;;5101224;28;20032;-61
2022/01/15 03:12:35;;;;;;;4.57;1.88;;;6.10;99.90;;;;;;5113444;28;20044;-60
2022/01/15 03:15:02;;;;;;;4.38;1.63;;;6.10;99.90;;;;;;5103746;28;20569;-61
2022/01/15 03:17:28;;;;;;;4.63;1.55;;;6.20;99.90;;;;;;5102923;28;20049;-61
2022/01/15 03:19:54;;;;;;;4.97;1.45;;;6.20;99.90;;;;;;5121416;28;20075;-60
2022/01/15 03:22:21;;;;;;;5.05;1.35;;;6.10;99.90;;;;;;5102878;28;20055;-62
2022/01/15 03:24:47;;;;;;;6.38;1.85;;;6.20;99.90;;;;;;5102818;28;20051;-61
2022/01/15 03:27:12;;;;;;;5.25;1.70;;;6.10;99.90;;;;;;5121315;28;20071;-61
2022/01/15 03:29:38;;;;;;;4.80;1.60;;;6.10;99.90;;;;;;5101114;28;20052;-61
2022/01/15 03:32:05;;;;;;;4.78;1.40;;;6.20;99.90;;;;;;5101173;28;20055;-62
2022/01/15 03:34:31;;;;;;;6.03;1.70;;;6.20;99.90;;;;;;5065564;28;20044;-61
2022/01/15 03:36:57;;;;;;;7.68;1.58;;;6.20;99.90;;;;;;5101244;28;20040;-60
2022/01/15 03:39:23;;;;;;;5.28;1.42;;;6.20;99.90;;;;;;5082131;28;20110;-61
2022/01/15 03:41:49;;;;;;;7.43;2.22;;;6.10;99.90;;;;;;5098922;28;20040;-61
2022/01/15 03:44:14;;;;;;;5.80;2.20;;;6.10;99.90;;;;;;5065566;28;20036;-61
2022/01/15 03:46:40;;;;;;;10.73;2.58;;;6.20;99.90;;;;;;5100052;28;20040;-61
2022/01/15 03:49:06;;;;;;;5.75;1.70;;;6.20;99.90;;;;;;5100448;28;20040;-61
2022/01/15 03:51:31;;;;;;;7.53;2.65;;;6.10;99.90;;;;;;5099481;28;20518;-60
2022/01/15 03:53:57;;;;;;;5.65;1.98;;;6.20;99.90;;;;;;5100355;28;20036;-61
2022/01/15 03:56:23;;;;;;;5.75;2.10;;;6.20;99.90;;;;;;5099828;28;20047;-61
2022/01/15 03:58:49;;;;;;;4.93;1.80;;;6.20;99.90;;;;;;5100382;28;20048;-62
2022/01/15 04:01:14;;;;;;;4.65;1.70;;;6.20;99.90;;;;;;5081931;28;20101;-61
2022/01/15 04:03:40;;;;;;;4.97;1.75;;;6.20;99.90;;;;;;5099943;28;20096;-61
2022/01/15 04:06:06;;;;;;;4.95;1.55;;;6.20;99.90;;;;;;5100456;28;20062;-61
2022/01/15 04:08:32;;;;;;;4.85;1.67;;;6.20;99.90;;;;;;5064683;28;20048;-61
2022/01/15 04:10:57;;;;;;;5.05;1.73;;;6.20;99.90;;;;;;5082193;28;20071;-61
2022/01/15 04:13:23;;;;;;;5.20;1.70;;;6.10;99.90;;;;;;5119649;28;20087;-61
2022/01/15 04:15:52;;;;;;;3.83;1.30;;;6.20;99.90;;;;;;5120490;28;20058;-61
2022/01/15 04:18:22;;;;;;;4.25;1.27;;;6.10;99.90;;;;;;5120379;28;20039;-61
2022/01/15 04:20:48;;;;;;;4.55;1.45;;;6.20;99.90;;;;;;5119656;28;20051;-62
2022/01/15 04:23:14;;;;;;;4.65;1.48;;;6.10;99.90;;;;;;5102352;28;20047;-60
2022/01/15 04:25:41;;;;;;;4.47;1.50;;;6.00;99.90;;;;;;5101699;28;20055;-61
2022/01/15 04:28:10;;;;;;;4.00;1.50;;;6.00;99.90;;;;;;5114148;28;20098;-61
2022/01/15 04:30:40;;;;;;;4.57;1.58;;;6.00;99.90;;;;;;5065028;28;20055;-61
2022/01/15 04:33:05;;;;;;;4.90;1.60;;;6.20;99.90;;;;;;5081643;28;20173;-61
2022/01/15 04:35:31;;;;;;;5.57;1.58;;;5.80;99.90;;;;;;5081833;28;20101;-60
2022/01/15 04:38:04;;;;;;;5.22;1.40;;;6.10;99.90;;;;;;5099431;28;20044;-61
2022/01/15 04:40:30;;;;;;;5.38;1.45;;;6.10;99.90;;;;;;5100350;28;20044;-61
2022/01/15 04:42:56;;;;;;;4.85;1.58;;;6.20;99.90;;;;;;5099453;28;20036;-61
2022/01/15 04:45:22;;;;;;;5.00;1.60;;;6.10;99.90;;;;;;5082028;28;20104;-60
2022/01/15 04:47:47;;;;;;;4.43;1.33;;;6.10;99.90;;;;;;5081176;28;20061;-62
2022/01/15 04:50:16;;;;;;;4.78;1.52;;;6.20;99.90;;;;;;5099249;28;20071;-61
2022/01/15 04:52:43;;;;;;;4.90;1.75;;;6.10;99.90;;;;;;5099619;28;20054;-61
2022/01/15 04:55:10;;;;;;;5.00;1.80;;;6.10;99.90;;;;;;5099003;28;20083;-62
2022/01/15 04:57:37;;;;;;;5.88;1.90;;;6.10;99.90;;;;;;5081837;28;20048;-62
2022/01/15 05:00:06;;;;;;;8.02;1.77;;;6.10;99.90;;;;;;5099164;28;20052;-61
2022/01/15 05:02:31;;;;;;;6.25;1.85;;;6.10;99.90;;;;;;5100036;28;20109;-61
2022/01/15 05:04:57;;;;;;;5.55;1.85;;;6.20;99.90;;;;;;5051244;28;20075;-61
2022/01/15 05:07:22;;;;;;;5.40;1.75;;;6.10;99.90;;;;;;5068438;28;20040;-62
2022/01/15 05:09:49;;;;;;;6.30;1.90;;;6.00;99.90;;;;;;5103459;28;20052;-62
2022/01/15 05:12:27;;;;;;;4.88;1.77;;;6.10;99.90;;;;;;5084623;28;20044;-62
2022/01/15 05:14:53;;;;;;;5.70;2.40;;;6.00;99.90;;;;;;5085642;28;20497;-62
2022/01/15 05:17:19;;;;;;;6.55;2.08;;;5.90;99.90;;;;;;5102947;28;20048;-62
2022/01/15 05:19:45;;;;;;;6.35;2.60;;;6.10;99.90;;;;;;5103511;28;20032;-61
2022/01/15 05:22:11;;;;;;;6.45;2.10;;;6.00;99.90;;;;;;5084966;28;20086;-62
2022/01/15 05:24:36;;;;;;;7.57;2.72;;;6.10;99.90;;;;;;5048006;28;20494;-62
2022/01/15 05:27:02;;;;;;;8.77;2.58;;;6.10;99.90;;;;;;5082894;28;20092;-62
2022/01/15 05:29:28;;;;;;;6.70;2.78;;;6.00;99.90;;;;;;5082570;28;20389;-61
2022/01/15 05:31:54;;;;;;;7.28;2.70;;;6.00;99.90;;;;;;5082858;28;20055;-61
2022/01/15 05:34:20;;;;;;;7.88;2.55;;;6.00;99.90;;;;;;5064495;28;20688;-61
2022/01/15 05:36:46;;;;;;;6.80;2.58;;;6.00;99.90;;;;;;5048408;28;20166;-61
2022/01/15 05:39:12;;;;;;;8.00;2.95;;;6.00;99.90;;;;;;5064430;28;20040;-62
2022/01/15 05:41:38;;;;;;;6.97;2.85;;;6.00;99.90;;;;;;5064775;28;20535;-61
2022/01/15 05:44:04;;;;;;;8.75;2.70;;;6.00;99.90;;;;;;5082560;28;20041;-61
2022/01/15 05:46:31;;;;;;;7.38;3.15;;;6.00;99.90;;;;;;5063888;28;20064;-62
2022/01/15 05:48:57;;;;;;;8.75;2.97;;;5.90;99.90;;;;;;5064801;28;20494;-62
2022/01/15 05:51:23;;;;;;;7.45;2.80;;;6.10;99.90;;;;;;5063629;28;20052;-61
2022/01/15 05:53:49;;;;;;;7.20;2.70;;;6.00;99.90;;;;;;5082986;28;20047;-61
2022/01/15 05:56:15;;;;;;;8.27;3.17;;;6.00;99.90;;;;;;5063919;28;20037;-60
2022/01/15 05:58:40;;;;;;;7.85;3.15;;;5.90;99.90;;;;;;5064346;28;20048;-61
2022/01/15 06:01:06;;;;;;;8.80;3.45;;;6.10;99.90;;;;;;5082162;28;20055;-61
2022/01/15 06:03:32;;;;;;;8.70;3.20;;;6.00;99.90;;;;;;5063981;28;20056;-60
2022/01/15 06:05:57;;;;;;;7.97;3.63;;;6.00;99.90;;;;;;5047563;28;20051;-61
2022/01/15 06:08:23;;;;;;;7.85;3.20;;;6.00;99.90;;;;;;5063676;28;20048;-61
2022/01/15 06:10:49;;;;;;;7.63;3.03;;;6.00;99.90;;;;;;5064323;28;20135;-61
2022/01/15 06:13:14;;;;;;;7.47;2.97;;;6.10;99.90;;;;;;5063710;28;20076;-61
2022/01/15 06:15:40;;;;;;;8.20;3.53;;;6.00;99.90;;;;;;5081487;28;20041;-61
2022/01/15 06:18:06;;;;;;;7.57;3.28;;;6.00;99.90;;;;;;5064014;28;20048;-61
2022/01/15 06:20:31;;;;;;;6.38;2.72;;;5.90;99.90;;;;;;5063376;28;20041;-61
2022/01/15 06:22:57;;;;;;;8.55;3.33;;;6.00;99.90;;;;;;5081571;28;20057;-61
2022/01/15 06:25:23;;;;;;;8.70;3.22;;;5.90;99.90;;;;;;5063366;28;20137;-62
2022/01/15 06:27:49;;;;;;;8.45;2.42;;;6.00;99.90;;;;;;5064156;28;20044;-61
2022/01/15 06:30:14;;;;;;;9.38;3.53;;;6.00;99.90;;;;;;5063050;28;20482;-62
2022/01/15 06:32:40;;;;;;;8.82;3.63;;;5.90;99.90;;;;;;5081989;28;20096;-62
2022/01/15 06:35:12;;;;;;;7.47;3.45;;;6.00;99.90;;;;;;5063491;28;20124;-62
2022/01/15 06:37:38;;;;;;;7.40;2.63;;;5.90;99.90;;;;;;5081377;28;20055;-62
2022/01/15 06:40:05;;;;;;;8.00;2.40;;;5.90;99.90;;;;;;5063407;28;20044;-62
2022/01/15 06:42:31;;;;;;;6.75;2.63;;;5.90;99.90;;;;;;5080946;28;20048;-62
2022/01/15 06:44:57;;;;;;;7.40;2.78;;;6.00;99.90;;;;;;5063531;28;20577;-62
2022/01/15 06:47:23;;;;;;;7.78;3.00;;;5.90;99.90;;;;;;5062839;28;20047;-61
2022/01/15 06:49:49;;;;;;;8.05;2.95;;;5.90;99.90;;;;;;5063286;28;20409;-60
2022/01/15 06:52:14;;;;;;;8.23;3.38;;;5.90;99.90;;;;;;5081166;28;20051;-62
2022/01/15 06:54:40;;;;;;;8.23;3.08;;;5.90;99.90;;;;;;5080922;28;20086;-61
2022/01/15 06:57:06;;;;;;;7.88;2.90;;;6.00;99.90;;;;;;5063093;28;20075;-62
2022/01/15 06:59:32;;;;;;;7.20;3.17;;;5.90;99.90;;;;;;5080882;28;20045;-62
2022/01/15 07:01:57;;;;;;;9.15;3.63;;;5.90;99.90;;;;;;5081212;28;20045;-61
2022/01/15 07:04:23;;;;;;;9.25;3.15;;;5.80;99.90;;;;;;5080707;28;20048;-61
2022/01/15 07:06:49;;;;;;;8.23;3.83;;;5.90;99.90;;;;;;5081520;28;20041;-62
2022/01/15 07:09:14;;;;;;;8.63;3.80;;;5.90;99.90;;;;;;5062871;28;20044;-60
2022/01/15 07:11:40;;;;;;;9.23;3.78;;;5.90;99.90;;;;;;5049996;28;20091;-60
2022/01/15 07:14:06;;;;;;;8.93;3.70;;;5.90;99.90;;;;;;5101203;28;20105;-61
2022/01/15 07:16:31;;;;;;;9.18;4.03;;;5.90;99.90;;;;;;5082441;28;20060;-61
2022/01/15 07:18:57;;;;;;;9.25;3.60;;;5.90;99.90;;;;;;5100868;28;20048;-61
2022/01/15 07:21:23;;;;;;;9.45;3.65;;;5.80;99.90;;;;;;5104940;28;20055;-62
2022/01/15 07:23:48;;;;;;;8.27;3.53;;;5.90;99.90;;;;;;5086705;28;20101;-62
2022/01/15 07:26:14;;;;;;;8.88;3.90;;;5.70;99.90;;;;;;5085478;28;20054;-62
2022/01/15 07:28:40;;;;;;;8.35;3.53;;;5.80;99.90;;;;;;5090897;28;20044;-62
2022/01/15 07:31:06;;;;;;;9.15;3.55;;;6.10;99.90;;;;;;5082764;28;20040;-62
2022/01/15 07:33:31;;;;;;;8.15;3.88;;;5.70;99.90;;;;;;5100378;28;20065;-62
2022/01/15 07:35:57;;;;;;;7.55;2.78;;;5.70;99.90;;;;;;5082739;28;20040;-62
2022/01/15 07:38:24;;;;;;;7.28;3.00;;;5.80;99.90;;;;;;5081934;28;20571;-62
2022/01/15 07:40:53;;;;;;;6.90;2.88;;;5.70;99.90;;;;;;5101199;28;20104;-62
2022/01/15 07:43:19;;;;;;;6.68;2.67;;;5.70;99.90;;;;;;5100365;28;20160;-62
2022/01/15 07:45:46;;;;;;;6.78;2.80;;;5.70;99.90;;;;;;5082780;28;20637;-62
2022/01/15 07:48:11;;;;;;;6.53;2.40;;;5.70;99.90;;;;;;5100512;28;20061;-62
2022/01/15 07:50:37;;;;;;;6.97;2.70;;;5.60;99.90;;;;;;5099589;28;20071;-62
2022/01/15 07:53:03;;;;;;;7.43;2.90;;;5.70;99.90;;;;;;5082020;28;20119;-62
2022/01/15 07:55:28;;;;;;;7.13;2.85;;;5.70;99.90;;;;;;5081450;28;20074;-62
2022/01/15 07:57:54;;;;;;;6.78;2.75;;;5.70;99.90;;;;;;5082426;28;20036;-62
2022/01/15 08:00:20;;;;;;;7.72;2.78;;;5.70;99.90;;;;;;5099741;28;20048;-60
2022/01/15 08:02:46;;;;;;;7.10;3.10;;;5.70;99.90;;;;;;5100712;28;20036;-62
2022/01/15 08:05:12;;;;;;;7.93;2.95;;;5.70;99.90;;;;;;5098821;28;20126;-62
2022/01/15 08:07:40;;;;;;;7.63;2.95;;;5.70;99.90;;;;;;5099922;28;20105;-62
2022/01/15 08:10:07;;;;;;;6.82;2.95;;;5.80;99.90;;;;;;5100108;28;20073;-62
2022/01/15 08:12:34;;;;;;;8.50;2.97;;;5.70;99.90;;;;;;5111114;28;20077;-62
2022/01/15 08:14:59;;;;;;;6.88;2.83;;;5.70;99.90;;;;;;5102898;28;20051;-61
2022/01/15 08:17:25;;;;;;;8.80;3.30;;;5.80;99.90;;;;;;5119957;28;20072;-61
2022/01/15 08:19:51;;;;;;;8.05;3.38;;;5.80;99.90;;;;;;5120301;28;20481;-61
2022/01/15 08:22:17;;;;;;;8.95;3.30;;;5.80;99.90;;;;;;5101877;28;20070;-61
2022/01/15 08:24:42;;;;;;;8.77;3.45;;;5.80;99.90;;;;;;5119991;28;20070;-61
2022/01/15 08:27:08;;;;;;;8.48;3.50;;;5.80;99.90;;;;;;5120560;28;20051;-61
2022/01/15 08:29:34;;;;;;;8.77;4.05;;;5.80;99.90;;;;;;5100884;28;20064;-61
2022/01/15 08:32:00;;;;;;;9.00;3.58;;;5.90;99.90;;;;;;5082240;28;20083;-61
2022/01/15 08:34:25;;;;;;;9.43;3.88;;;5.80;99.90;;;;;;5099347;28;20609;-62
2022/01/15 08:36:51;;;;;;;8.88;3.60;;;5.80;99.90;;;;;;5082064;28;20048;-61
2022/01/15 08:39:17;;;;;;;10.70;4.53;;;5.80;99.90;;;;;;5102174;28;20040;-61
2022/01/15 08:41:48;;;;;;;9.15;4.38;;;5.80;99.90;;;;;;5104099;28;20044;-61
2022/01/15 08:44:22;;;;;;;9.38;3.95;;;5.70;99.90;;;;;;5104361;28;20075;-61
2022/01/15 08:46:48;;;;;;;8.85;3.63;;;5.70;99.90;;;;;;5103499;28;20488;-61
2022/01/15 08:49:13;;;;;;;12.00;4.95;;;5.80;99.90;;;;;;5104270;28;20047;-61
2022/01/15 08:51:39;;;;;;;10.43;4.90;;;5.70;99.90;;;;;;5103470;28;20051;-61
2022/01/15 08:54:05;;;;;;;10.23;4.85;;;5.80;99.90;;;;;;5069328;28;20094;-61
2022/01/15 08:56:30;;;;;;;11.02;4.80;;;5.70;99.90;;;;;;5085566;28;20243;-61
2022/01/15 08:58:56;;;;;;;9.82;3.92;;;5.80;99.90;;;;;;5102149;28;20048;-61
2022/01/15 09:01:22;;;;;;;11.18;4.10;;;5.80;99.90;;;;;;5103819;28;20044;-61
2022/01/15 09:03:47;;;;;;;12.45;4.97;;;5.80;99.90;;;;;;5103083;28;20557;-61
2022/01/15 09:06:13;;;;;;;11.38;4.70;;;5.80;99.90;;;;;;5104067;28;20170;-61
2022/01/15 09:08:39;;;;;;;12.43;4.72;;;6.00;99.90;;;;;;5103071;28;20036;-62
2022/01/15 09:11:06;;;;;;;12.43;5.60;;;5.70;99.90;;;;;;5085847;28;20036;-61
2022/01/15 09:13:31;;;;;;;13.20;5.43;;;5.80;99.90;;;;;;5103275;28;20103;-61
2022/01/15 09:15:57;;;;;;;13.77;5.50;;;5.70;99.90;;;;;;5103426;28;20040;-61
2022/01/15 09:18:23;;;;;;;15.13;6.30;;;5.80;99.90;;;;;;5103515;28;20468;-61
2022/01/15 09:20:49;;;;;;;12.27;5.60;;;5.70;99.90;;;;;;5084414;28;20516;-61
2022/01/15 09:23:16;;;;;;;12.75;5.65;;;5.80;99.90;;;;;;5085455;28;20063;-61
2022/01/15 09:25:41;;;;;;;14.48;6.82;;;5.80;99.90;;;;;;5102895;28;20091;-61
2022/01/15 09:30:52;;;;;;;11.05;4.72;;;5.80;99.90;;;;;;5087568;28;20044;-61
2022/01/15 09:33:18;;;;;;;10.98;4.65;;;5.80;99.90;;;;;;5102848;28;20538;-61
2022/01/15 09:35:43;;;;;;;10.38;4.20;;;5.70;99.90;;;;;;5084692;28;20047;-61
2022/01/15 09:38:10;;;;;;;11.65;4.57;;;5.70;99.90;;;;;;5084162;28;20087;-61
2022/01/15 09:40:35;;;;;;;9.90;4.38;;;5.70;99.90;;;;;;5103432;28;20058;-61
2022/01/15 09:43:02;;;;;;;9.95;4.75;;;5.80;99.90;;;;;;5067618;28;20075;-61
2022/01/15 09:45:29;;;;;;;10.20;4.50;;;5.90;99.90;;;;;;5084864;28;20039;-61
2022/01/15 09:47:58;;;;;;;10.82;4.90;;;5.80;99.90;;;;;;5084603;28;20122;-61
2022/01/15 09:50:27;;;;;;;11.10;4.70;;;5.70;99.90;;;;;;5101095;28;20505;-61
2022/01/15 09:52:53;;;;;;;9.70;4.30;;;5.70;99.90;;;;;;5102967;28;20344;-62
2022/01/15 09:55:21;;;;;;;9.60;4.20;;;5.70;99.90;;;;;;5102253;28;20047;-61
2022/01/15 09:57:48;;;;;;;10.73;4.28;;;5.70;99.90;;;;;;5084729;28;20059;-61
2022/01/15 10:00:16;;;;;;;9.30;3.53;;;5.70;99.90;;;;;;5083697;28;20040;-61
2022/01/15 10:02:43;;;;;;;9.25;4.05;;;5.80;99.90;;;;;;5102717;28;20043;-61
2022/01/15 10:05:11;;;;;;;11.15;4.55;;;5.80;99.90;;;;;;5102420;28;20576;-60
2022/01/15 10:07:36;;;;;;;11.00;4.95;;;5.80;99.90;;;;;;5102192;28;20043;-61
2022/01/15 10:10:18;;;;;;;10.73;4.60;;;5.80;99.90;;;;;;5084382;28;20040;-61
2022/01/15 10:12:44;;;;;;;10.95;4.97;;;5.80;99.90;;;;;;5102071;28;20535;-62
2022/01/15 10:15:11;;;;;;;11.75;5.05;;;5.70;99.90;;;;;;5102721;28;20040;-61
2022/01/15 10:17:39;;;;;;;10.68;5.32;;;5.80;99.90;;;;;;5083805;28;20048;-61
2022/01/15 10:20:14;;;;;;;13.73;5.90;;;5.80;99.90;;;;;;5066842;28;20059;-60
2022/01/15 10:22:46;;;;;;;12.68;5.53;;;5.80;99.90;;;;;;5086966;28;20111;-61
2022/01/15 10:25:18;;;;;;;13.10;5.90;;;5.80;99.90;;;;;;5063327;28;20044;-61
2022/01/15 10:27:52;;;;;;;14.00;6.90;;;5.70;99.90;;;;;;5082202;28;20123;-61
2022/01/15 10:30:26;;;;;;;16.88;7.32;;;5.70;99.90;;;;;;5063171;28;20102;-61
2022/01/15 10:33:00;;;;;;;14.18;7.55;;;5.80;99.90;;;;;;5047753;28;20048;-61
2022/01/15 10:35:31;;;;;;;17.15;7.72;;;5.70;99.90;;;;;;5081956;28;20091;-61
2022/01/15 10:37:59;;;;;;;15.77;7.57;;;5.60;99.90;;;;;;5081194;28;20044;-60
2022/01/15 10:40:27;;;;;;;15.93;7.28;;;5.70;99.90;;;;;;5081976;28;20576;-61
2022/01/15 10:42:58;;;;;;;16.05;7.95;;;5.80;99.90;;;;;;5046245;28;20071;-61
2022/01/15 10:45:27;;;;;;;13.90;6.97;;;5.90;99.90;;;;;;5081809;28;20055;-60
2022/01/15 10:47:55;;;;;;;16.02;7.43;;;5.80;99.90;;;;;;5081272;28;20099;-60
2022/01/15 10:50:32;;;;;;;15.93;7.38;;;5.70;99.90;;;;;;5062989;28;20041;-60
2022/01/15 10:53:11;;;;;;;12.85;6.43;;;5.70;99.90;;;;;;5046758;28;20058;-61
2022/01/15 10:55:39;;;;;;;18.55;8.43;;;5.80;99.90;;;;;;5046156;28;20063;-60
2022/01/15 10:58:08;;;;;;;15.57;7.75;;;5.80;99.90;;;;;;5081656;28;20047;-61
2022/01/15 11:00:37;;;;;;;14.85;6.68;;;5.60;99.90;;;;;;5063249;28;20041;-61
2022/01/15 11:03:16;;;;;;;13.80;7.07;;;5.70;99.90;;;;;;5062688;28;20048;-61
2022/01/15 11:05:50;;;;;;;15.88;7.22;;;5.70;99.90;;;;;;5062853;28;20050;-61
2022/01/15 11:08:26;;;;;;;13.23;6.88;;;5.70;99.90;;;;;;5080638;28;20088;-61
2022/01/15 11:10:57;;;;;;;12.05;6.05;;;5.70;99.90;;;;;;5081369;28;20050;-61
2022/01/15 11:13:29;;;;;;;13.27;7.00;;;5.70;99.90;;;;;;5099843;28;20067;-60
2022/01/15 11:15:57;;;;;;;;;;;5.60;99.90;;;;;;5101731;28;20050;-61
2022/01/15 11:18:32;;;;;;;12.50;6.22;;;5.70;99.90;;;;;;5083100;28;19927;-61
2022/01/15 11:21:00;;;;;;;13.77;6.35;;;5.70;99.90;;;;;;5101458;28;20059;-61
2022/01/15 11:23:27;;;;;;;15.27;7.30;;;5.70;99.90;;;;;;5122006;28;20051;-60
2022/01/15 11:25:56;;;;;;;14.60;7.55;;;5.70;99.90;;;;;;5120978;28;20067;-61
2022/01/15 11:28:25;;;;;;;15.63;7.32;;;5.80;99.90;;;;;;5077916;28;20079;-61
2022/01/15 11:31:06;;;;;;;15.60;7.38;;;5.70;99.90;;;;;;5100619;28;20497;-61
2022/01/15 11:33:35;;;;;;;15.82;7.28;;;5.70;99.90;;;;;;5065438;28;20036;-61
2022/01/15 11:36:03;;;;;;;15.48;6.75;;;5.70;99.90;;;;;;5101008;28;20043;-61
2022/01/15 11:38:37;;;;;;;14.82;7.55;;;5.70;99.90;;;;;;5100275;28;20047;-61
2022/01/15 11:41:03;;;;;;;17.15;8.10;;;5.80;99.90;;;;;;5101130;28;20698;-61
2022/01/15 11:43:31;;;;;;;17.90;7.95;;;5.70;99.90;;;;;;5082325;28;20044;-61
2022/01/15 11:45:58;;;;;;;18.30;8.40;;;5.70;99.90;;;;;;5100412;28;20036;-62
2022/01/15 11:48:29;;;;;;;18.27;9.55;;;5.70;99.90;;;;;;5100520;28;20040;-61
2022/01/15 11:51:13;;;;;;;20.63;9.35;;;5.60;99.90;;;;;;5099667;28;20684;-61
2022/01/15 11:53:59;;;;;;;17.13;8.18;;;5.60;99.90;;;;;;5101237;28;20083;-61
2022/01/15 11:56:27;;;;;;;18.58;9.38;;;5.80;99.90;;;;;;5082259;28;20074;-61
2022/01/15 11:59:04;;;;;;;17.75;8.75;;;5.60;99.90;;;;;;5100394;28;20040;-61
2022/01/15 12:01:42;;;;;;;20.25;10.68;;;5.60;99.90;;;;;;5100443;28;20513;-60
2022/01/15 12:04:38;;;;;;;21.08;9.85;;;5.60;99.90;;;;;;5099949;28;20052;-62
2022/01/15 12:07:06;;;;;;;24.77;11.32;;;5.60;99.90;;;;;;5100434;28;20048;-61
2022/01/15 12:09:32;;;;;;;23.02;11.82;;;5.70;99.90;;;;;;5100359;28;20056;-61
2022/01/15 12:11:58;;;;;;;21.85;11.18;;;5.70;99.90;;;;;;5099557;28;20107;-61
2022/01/15 12:14:49;;;;;;;22.40;11.15;;;5.60;99.90;;;;;;5081610;28;20047;-62
2022/01/15 12:17:31;;;;;;;24.63;11.23;;;5.60;99.90;;;;;;5099612;28;20039;-61
2022/01/15 12:20:05;;;;;;;24.50;12.00;;;5.60;99.90;;;;;;5099728;28;20055;-60
2022/01/15 12:22:45;;;;;;;24.88;11.57;;;5.70;99.90;;;;;;5085962;28;20196;-62
2022/01/15 12:25:16;;;;;;;21.90;10.75;;;5.70;99.90;;;;;;5079368;28;20048;-61
2022/01/15 12:27:43;;;;;;;33.08;12.50;;;5.60;99.90;;;;;;5080192;28;20041;-62
2022/01/15 12:30:23;;;;;;;25.55;12.73;;;5.60;99.90;;;;;;5044339;28;20441;-61
2022/01/15 12:32:54;;;;;;;25.05;11.65;;;5.60;99.90;;;;;;5079825;28;20048;-61
2022/01/15 12:35:25;;;;;;;24.02;11.57;;;5.60;99.90;;;;;;5079657;28;20696;-60
2022/01/15 12:38:03;;;;;;;24.25;11.75;;;5.60;99.90;;;;;;5061398;28;20036;-62
2022/01/15 12:40:29;;;;;;;27.23;13.90;;;5.60;99.90;;;;;;5080176;28;20425;-61
2022/01/15 12:43:00;;;;;;;24.90;13.05;;;5.50;99.90;;;;;;5079402;28;20036;-61
2022/01/15 12:45:26;;;;;;;26.88;11.90;;;5.50;99.90;;;;;;5045110;28;20048;-61
2022/01/15 12:47:52;;;;;;;22.80;12.25;;;5.40;99.90;;;;;;5079376;28;20044;-61
2022/01/15 12:50:19;;;;;;;24.23;12.50;;;5.40;99.90;;;;;;5061033;28;20060;-61
2022/01/15 12:52:45;;;;;;;23.85;11.60;;;5.50;99.90;;;;;;5045016;28;20044;-61
2022/01/15 12:55:11;;;;;;;25.30;11.52;;;5.50;99.90;;;;;;5060934;28;20048;-61
2022/01/15 12:57:48;;;;;;;20.48;10.70;;;5.40;99.90;;;;;;5079921;28;20051;-60
2022/01/15 13:00:20;;;;;;;22.38;10.38;;;5.30;99.90;;;;;;5079084;28;20413;-60
2022/01/15 13:02:48;;;;;;;22.08;11.30;;;5.20;99.90;;;;;;5061712;28;20071;-61
2022/01/15 13:05:14;;;;;;;27.60;12.10;;;5.20;99.90;;;;;;5079493;28;20629;-61
2022/01/15 13:07:51;;;;;;;19.95;9.98;;;5.20;99.90;;;;;;5060732;28;20053;-61
2022/01/15 13:10:31;;;;;;;19.60;10.95;;;5.20;99.90;;;;;;5044425;28;20040;-61
2022/01/15 13:12:58;;;;;;;20.38;11.18;;;5.20;99.90;;;;;;5060767;28;20040;-61
2022/01/15 13:15:25;;;;;;;24.70;13.00;;;5.10;99.90;;;;;;5079916;28;20043;-61
2022/01/15 13:17:51;;;;;;;22.73;11.75;;;5.10;99.90;;;;;;5078975;28;20628;-60
2022/01/15 13:20:30;;;;;;;21.23;11.50;;;5.10;99.90;;;;;;5078896;28;20048;-61
2022/01/15 13:22:57;;;;;;;22.63;11.90;;;5.20;99.90;;;;;;5079225;28;20129;-61